sensor_id;sensor_type;location;lat;lon;timestamp;P1;durP1;ratioP1;P2;durP2;ratioP2
21905;SDS011;11117;48.644;9.006;2023-03-29T00:02:23;5.00;;;3.10;;
21905;SDS011;11117;48.644;9.006;2023-03-29T00:04:49;5.63;;;3.70;;
21905;SDS011;11117;48.644;9.006;2023-03-29T00:07:14;6.27;;;3.40;;
21905;SDS011;11117;48.644;9.006;2023-03-29T00:09:40;4.80;;;3.40;;
21905;SDS011;11117;48.644;9.006;2023-03-29T00:12:05;5.40;;;3.20;;
21905;SDS011;11117;48.644;9.006;2023-03-29T00:14:31;4.13;;;3.20;;
21905;SDS011;11117;48.644;9.006;2023-03-29T00:16:57;5.17;;;3.40;;
21905;SDS011;11117;48.644;9.006;2023-03-29T00:19:23;6.73;;;3.40;;
21905;SDS011;11117;48.644;9.006;2023-03-29T00:21:48;5.20;;;3.30;;
21905;SDS011;11117;48.644;9.006;2023-03-29T00:24:14;5.30;;;3.47;;
21905;SDS011;11117;48.644;9.006;2023-03-29T00:26:39;4.83;;;3.03;;
21905;SDS011;11117;48.644;9.006;2023-03-29T00:29:05;6.40;;;3.20;;
21905;SDS011;11117;48.644;9.006;2023-03-29T00:31:31;4.73;;;3.50;;
21905;SDS011;11117;48.644;9.006;2023-03-29T00:33:56;5.93;;;2.80;;
21905;SDS011;11117;48.644;9.006;2023-03-29T00:36:22;4.33;;;2.80;;
21905;SDS011;11117;48.644;9.006;2023-03-29T00:38:47;6.63;;;3.17;;
21905;SDS011;11117;48.644;9.006;2023-03-29T00:41:13;5.10;;;3.03;;
21905;SDS011;11117;48.644;9.006;2023-03-29T00:43:49;3.70;;;2.60;;
21905;SDS011;11117;48.644;9.006;2023-03-29T00:46:20;4.93;;;3.10;;
21905;SDS011;11117;48.644;9.006;2023-03-29T00:48:46;8.40;;;3.00;;
21905;SDS011;11117;48.644;9.006;2023-03-29T00:51:12;6.93;;;3.17;;
21905;SDS011;11117;48.644;9.006;2023-03-29T00:53:43;8.27;;;3.20;;
21905;SDS011;11117;48.644;9.006;2023-03-29T00:56:14;5.83;;;3.10;;
21905;SDS011;11117;48.644;9.006;2023-03-29T00:59:03;6.37;;;3.20;;
21905;SDS011;11117;48.644;9.006;2023-03-29T01:01:49;4.43;;;3.30;;
21905;SDS011;11117;48.644;9.006;2023-03-29T01:04:20;4.17;;;2.97;;
21905;SDS011;11117;48.644;9.006;2023-03-29T01:07:09;6.77;;;3.20;;
21905;SDS011;11117;48.644;9.006;2023-03-29T01:09:40;5.70;;;3.27;;
21905;SDS011;11117;48.644;9.006;2023-03-29T01:12:13;4.63;;;2.73;;
21905;SDS011;11117;48.644;9.006;2023-03-29T01:17:30;6.60;;;3.37;;
21905;SDS011;11117;48.644;9.006;2023-03-29T01:19:57;5.10;;;3.37;;
21905;SDS011;11117;48.644;9.006;2023-03-29T01:27:41;6.60;;;3.73;;
21905;SDS011;11117;48.644;9.006;2023-03-29T01:30:17;6.87;;;3.53;;
21905;SDS011;11117;48.644;9.006;2023-03-29T01:32:55;6.07;;;3.40;;
21905;SDS011;11117;48.644;9.006;2023-03-29T01:35:44;7.80;;;3.50;;
21905;SDS011;11117;48.644;9.006;2023-03-29T01:38:20;5.80;;;3.53;;
21905;SDS011;11117;48.644;9.006;2023-03-29T01:41:07;5.20;;;3.50;;
21905;SDS011;11117;48.644;9.006;2023-03-29T01:49:38;10.00;;;3.70;;
21905;SDS011;11117;48.644;9.006;2023-03-29T01:52:02;8.23;;;3.80;;
21905;SDS011;11117;48.644;9.006;2023-03-29T01:54:46;5.50;;;3.70;;
21905;SDS011;11117;48.644;9.006;2023-03-29T01:57:18;6.47;;;3.60;;
21905;SDS011;11117;48.644;9.006;2023-03-29T01:59:46;4.93;;;3.70;;
21905;SDS011;11117;48.644;9.006;2023-03-29T02:02:13;4.50;;;3.43;;
21905;SDS011;11117;48.644;9.006;2023-03-29T02:04:42;6.33;;;3.50;;
21905;SDS011;11117;48.644;9.006;2023-03-29T02:07:11;6.53;;;3.20;;
21905;SDS011;11117;48.644;9.006;2023-03-29T02:09:37;5.20;;;3.20;;
21905;SDS011;11117;48.644;9.006;2023-03-29T02:12:04;5.23;;;3.20;;
21905;SDS011;11117;48.644;9.006;2023-03-29T02:14:30;4.60;;;3.37;;
21905;SDS011;11117;48.644;9.006;2023-03-29T02:17:07;5.07;;;3.10;;
21905;SDS011;11117;48.644;9.006;2023-03-29T02:19:39;3.73;;;2.80;;
21905;SDS011;11117;48.644;9.006;2023-03-29T02:22:06;7.83;;;2.90;;
21905;SDS011;11117;48.644;9.006;2023-03-29T02:24:33;3.83;;;2.87;;
21905;SDS011;11117;48.644;9.006;2023-03-29T02:27:01;7.53;;;2.60;;
21905;SDS011;11117;48.644;9.006;2023-03-29T02:29:27;5.53;;;3.00;;
21905;SDS011;11117;48.644;9.006;2023-03-29T02:31:54;4.23;;;2.73;;
21905;SDS011;11117;48.644;9.006;2023-03-29T02:34:29;3.47;;;2.50;;
21905;SDS011;11117;48.644;9.006;2023-03-29T02:37:01;4.63;;;2.60;;
21905;SDS011;11117;48.644;9.006;2023-03-29T02:39:31;3.77;;;2.60;;
21905;SDS011;11117;48.644;9.006;2023-03-29T02:41:58;3.77;;;2.50;;
21905;SDS011;11117;48.644;9.006;2023-03-29T02:44:26;4.97;;;2.47;;
21905;SDS011;11117;48.644;9.006;2023-03-29T02:46:55;4.70;;;2.20;;
21905;SDS011;11117;48.644;9.006;2023-03-29T02:49:22;4.83;;;2.50;;
21905;SDS011;11117;48.644;9.006;2023-03-29T02:51:50;4.03;;;2.83;;
21905;SDS011;11117;48.644;9.006;2023-03-29T02:54:18;4.23;;;2.50;;
21905;SDS011;11117;48.644;9.006;2023-03-29T02:56:54;4.80;;;2.60;;
21905;SDS011;11117;48.644;9.006;2023-03-29T02:59:22;6.17;;;2.40;;
21905;SDS011;11117;48.644;9.006;2023-03-29T03:01:48;5.73;;;2.10;;
21905;SDS011;11117;48.644;9.006;2023-03-29T03:04:13;6.43;;;2.50;;
21905;SDS011;11117;48.644;9.006;2023-03-29T03:06:39;4.87;;;2.20;;
21905;SDS011;11117;48.644;9.006;2023-03-29T03:09:05;3.77;;;2.20;;
21905;SDS011;11117;48.644;9.006;2023-03-29T03:11:34;3.60;;;2.17;;
21905;SDS011;11117;48.644;9.006;2023-03-29T03:13:59;4.37;;;2.37;;
21905;SDS011;11117;48.644;9.006;2023-03-29T03:16:25;6.40;;;2.20;;
21905;SDS011;11117;48.644;9.006;2023-03-29T03:18:50;4.00;;;2.10;;
21905;SDS011;11117;48.644;9.006;2023-03-29T03:21:17;2.73;;;1.80;;
21905;SDS011;11117;48.644;9.006;2023-03-29T03:23:43;5.03;;;2.07;;
21905;SDS011;11117;48.644;9.006;2023-03-29T03:26:09;3.17;;;2.10;;
21905;SDS011;11117;48.644;9.006;2023-03-29T03:28:35;3.30;;;2.03;;
21905;SDS011;11117;48.644;9.006;2023-03-29T03:31:01;4.87;;;2.27;;
21905;SDS011;11117;48.644;9.006;2023-03-29T03:33:26;5.13;;;2.10;;
21905;SDS011;11117;48.644;9.006;2023-03-29T03:35:52;3.90;;;2.00;;
21905;SDS011;11117;48.644;9.006;2023-03-29T03:38:17;3.73;;;2.50;;
21905;SDS011;11117;48.644;9.006;2023-03-29T03:40:43;4.43;;;2.10;;
21905;SDS011;11117;48.644;9.006;2023-03-29T03:43:08;5.67;;;2.17;;
21905;SDS011;11117;48.644;9.006;2023-03-29T03:45:34;5.73;;;2.03;;
21905;SDS011;11117;48.644;9.006;2023-03-29T03:48:00;3.10;;;2.17;;
21905;SDS011;11117;48.644;9.006;2023-03-29T03:50:25;3.80;;;2.30;;
21905;SDS011;11117;48.644;9.006;2023-03-29T03:52:51;4.00;;;2.10;;
21905;SDS011;11117;48.644;9.006;2023-03-29T03:55:16;2.30;;;1.97;;
21905;SDS011;11117;48.644;9.006;2023-03-29T03:57:42;2.67;;;1.70;;
21905;SDS011;11117;48.644;9.006;2023-03-29T04:00:08;4.13;;;1.77;;
21905;SDS011;11117;48.644;9.006;2023-03-29T04:02:34;5.93;;;2.03;;
21905;SDS011;11117;48.644;9.006;2023-03-29T04:04:59;4.17;;;1.90;;
21905;SDS011;11117;48.644;9.006;2023-03-29T04:07:28;3.73;;;2.37;;
21905;SDS011;11117;48.644;9.006;2023-03-29T04:09:54;3.43;;;2.00;;
21905;SDS011;11117;48.644;9.006;2023-03-29T04:12:22;4.53;;;1.90;;
21905;SDS011;11117;48.644;9.006;2023-03-29T04:14:50;7.23;;;1.90;;
21905;SDS011;11117;48.644;9.006;2023-03-29T04:17:16;2.40;;;1.63;;
21905;SDS011;11117;48.644;9.006;2023-03-29T04:19:42;2.87;;;1.90;;
21905;SDS011;11117;48.644;9.006;2023-03-29T04:22:07;2.93;;;2.00;;
21905;SDS011;11117;48.644;9.006;2023-03-29T04:24:33;4.63;;;2.17;;
21905;SDS011;11117;48.644;9.006;2023-03-29T04:27:01;6.47;;;2.13;;
21905;SDS011;11117;48.644;9.006;2023-03-29T04:29:27;9.10;;;2.63;;
21905;SDS011;11117;48.644;9.006;2023-03-29T04:31:53;7.33;;;2.17;;
21905;SDS011;11117;48.644;9.006;2023-03-29T04:34:18;4.30;;;2.03;;
21905;SDS011;11117;48.644;9.006;2023-03-29T04:36:44;6.57;;;1.50;;
21905;SDS011;11117;48.644;9.006;2023-03-29T04:39:10;2.50;;;1.47;;
21905;SDS011;11117;48.644;9.006;2023-03-29T04:41:36;1.80;;;1.40;;
21905;SDS011;11117;48.644;9.006;2023-03-29T04:44:01;5.80;;;1.90;;
21905;SDS011;11117;48.644;9.006;2023-03-29T04:46:27;4.77;;;1.80;;
21905;SDS011;11117;48.644;9.006;2023-03-29T04:48:53;1.90;;;1.50;;
21905;SDS011;11117;48.644;9.006;2023-03-29T04:51:18;3.80;;;1.80;;
21905;SDS011;11117;48.644;9.006;2023-03-29T04:53:44;2.73;;;1.40;;
21905;SDS011;11117;48.644;9.006;2023-03-29T04:56:10;5.00;;;1.60;;
21905;SDS011;11117;48.644;9.006;2023-03-29T04:58:38;2.73;;;1.70;;
21905;SDS011;11117;48.644;9.006;2023-03-29T05:01:03;1.83;;;1.53;;
21905;SDS011;11117;48.644;9.006;2023-03-29T05:03:29;3.07;;;1.70;;
21905;SDS011;11117;48.644;9.006;2023-03-29T05:05:55;5.13;;;2.10;;
21905;SDS011;11117;48.644;9.006;2023-03-29T05:08:27;8.37;;;2.17;;
21905;SDS011;11117;48.644;9.006;2023-03-29T05:10:55;7.63;;;2.40;;
21905;SDS011;11117;48.644;9.006;2023-03-29T05:13:21;3.80;;;2.33;;
21905;SDS011;11117;48.644;9.006;2023-03-29T05:15:46;2.73;;;1.90;;
21905;SDS011;11117;48.644;9.006;2023-03-29T05:18:12;2.90;;;1.67;;
21905;SDS011;11117;48.644;9.006;2023-03-29T05:20:37;2.47;;;1.60;;
21905;SDS011;11117;48.644;9.006;2023-03-29T05:23:06;4.00;;;1.60;;
21905;SDS011;11117;48.644;9.006;2023-03-29T05:25:31;4.77;;;1.80;;
21905;SDS011;11117;48.644;9.006;2023-03-29T05:27:57;6.03;;;1.80;;
21905;SDS011;11117;48.644;9.006;2023-03-29T05:30:22;5.47;;;1.70;;
21905;SDS011;11117;48.644;9.006;2023-03-29T05:32:50;4.40;;;1.80;;
21905;SDS011;11117;48.644;9.006;2023-03-29T05:35:16;3.77;;;1.50;;
21905;SDS011;11117;48.644;9.006;2023-03-29T05:37:41;4.37;;;1.60;;
21905;SDS011;11117;48.644;9.006;2023-03-29T05:40:07;4.07;;;1.70;;
21905;SDS011;11117;48.644;9.006;2023-03-29T05:42:33;2.77;;;1.30;;
21905;SDS011;11117;48.644;9.006;2023-03-29T05:44:58;4.03;;;1.90;;
21905;SDS011;11117;48.644;9.006;2023-03-29T05:47:24;3.47;;;1.73;;
21905;SDS011;11117;48.644;9.006;2023-03-29T05:49:50;5.60;;;1.40;;
21905;SDS011;11117;48.644;9.006;2023-03-29T05:52:15;4.37;;;1.70;;
21905;SDS011;11117;48.644;9.006;2023-03-29T05:54:41;2.17;;;1.60;;
21905;SDS011;11117;48.644;9.006;2023-03-29T05:57:06;2.57;;;1.60;;
21905;SDS011;11117;48.644;9.006;2023-03-29T05:59:32;3.73;;;1.50;;
21905;SDS011;11117;48.644;9.006;2023-03-29T06:01:57;3.17;;;1.80;;
21905;SDS011;11117;48.644;9.006;2023-03-29T06:04:23;4.40;;;1.50;;
21905;SDS011;11117;48.644;9.006;2023-03-29T06:06:48;2.67;;;1.40;;
21905;SDS011;11117;48.644;9.006;2023-03-29T06:09:14;1.77;;;1.40;;
21905;SDS011;11117;48.644;9.006;2023-03-29T06:11:40;3.77;;;1.67;;
21905;SDS011;11117;48.644;9.006;2023-03-29T06:14:05;3.53;;;1.50;;
21905;SDS011;11117;48.644;9.006;2023-03-29T06:16:31;3.40;;;1.57;;
21905;SDS011;11117;48.644;9.006;2023-03-29T06:18:56;4.13;;;1.40;;
21905;SDS011;11117;48.644;9.006;2023-03-29T06:21:22;5.40;;;2.03;;
21905;SDS011;11117;48.644;9.006;2023-03-29T06:23:50;3.17;;;1.37;;
21905;SDS011;11117;48.644;9.006;2023-03-29T06:26:16;2.50;;;1.70;;
21905;SDS011;11117;48.644;9.006;2023-03-29T06:28:42;5.83;;;1.70;;
21905;SDS011;11117;48.644;9.006;2023-03-29T06:31:07;3.70;;;1.40;;
21905;SDS011;11117;48.644;9.006;2023-03-29T06:33:40;7.20;;;2.07;;
21905;SDS011;11117;48.644;9.006;2023-03-29T06:36:06;2.20;;;1.80;;
21905;SDS011;11117;48.644;9.006;2023-03-29T06:38:38;5.83;;;1.50;;
21905;SDS011;11117;48.644;9.006;2023-03-29T06:41:05;3.80;;;1.70;;
21905;SDS011;11117;48.644;9.006;2023-03-29T06:43:32;4.33;;;1.80;;
21905;SDS011;11117;48.644;9.006;2023-03-29T06:45:58;2.53;;;1.43;;
21905;SDS011;11117;48.644;9.006;2023-03-29T06:48:23;5.97;;;1.60;;
21905;SDS011;11117;48.644;9.006;2023-03-29T06:50:49;6.30;;;1.80;;
21905;SDS011;11117;48.644;9.006;2023-03-29T06:53:15;3.57;;;1.80;;
21905;SDS011;11117;48.644;9.006;2023-03-29T06:55:40;7.00;;;1.80;;
21905;SDS011;11117;48.644;9.006;2023-03-29T06:58:06;4.17;;;1.70;;
21905;SDS011;11117;48.644;9.006;2023-03-29T07:00:32;6.70;;;1.60;;
21905;SDS011;11117;48.644;9.006;2023-03-29T07:02:58;3.47;;;1.90;;
21905;SDS011;11117;48.644;9.006;2023-03-29T07:05:28;5.47;;;2.00;;
21905;SDS011;11117;48.644;9.006;2023-03-29T07:07:54;3.33;;;1.70;;
21905;SDS011;11117;48.644;9.006;2023-03-29T07:10:20;2.97;;;1.60;;
21905;SDS011;11117;48.644;9.006;2023-03-29T07:13:00;3.83;;;1.60;;
21905;SDS011;11117;48.644;9.006;2023-03-29T07:15:26;3.93;;;1.90;;
21905;SDS011;11117;48.644;9.006;2023-03-29T07:17:52;7.17;;;1.87;;
21905;SDS011;11117;48.644;9.006;2023-03-29T07:20:19;3.63;;;1.80;;
21905;SDS011;11117;48.644;9.006;2023-03-29T07:22:44;6.87;;;2.10;;
21905;SDS011;11117;48.644;9.006;2023-03-29T07:25:20;7.20;;;2.20;;
21905;SDS011;11117;48.644;9.006;2023-03-29T07:27:47;4.00;;;1.90;;
21905;SDS011;11117;48.644;9.006;2023-03-29T07:30:14;4.87;;;1.87;;
21905;SDS011;11117;48.644;9.006;2023-03-29T07:32:41;7.93;;;1.50;;
21905;SDS011;11117;48.644;9.006;2023-03-29T07:35:08;2.27;;;1.50;;
21905;SDS011;11117;48.644;9.006;2023-03-29T07:37:34;3.23;;;1.77;;
21905;SDS011;11117;48.644;9.006;2023-03-29T07:40:01;3.17;;;1.60;;
21905;SDS011;11117;48.644;9.006;2023-03-29T07:42:27;2.20;;;1.70;;
21905;SDS011;11117;48.644;9.006;2023-03-29T07:44:53;5.07;;;1.90;;
21905;SDS011;11117;48.644;9.006;2023-03-29T07:47:18;6.80;;;1.93;;
21905;SDS011;11117;48.644;9.006;2023-03-29T07:49:44;5.00;;;1.90;;
21905;SDS011;11117;48.644;9.006;2023-03-29T07:52:10;3.43;;;1.57;;
21905;SDS011;11117;48.644;9.006;2023-03-29T07:54:36;3.07;;;1.83;;
21905;SDS011;11117;48.644;9.006;2023-03-29T07:57:01;4.03;;;1.87;;
21905;SDS011;11117;48.644;9.006;2023-03-29T07:59:27;3.77;;;1.80;;
21905;SDS011;11117;48.644;9.006;2023-03-29T08:01:53;5.67;;;1.77;;
21905;SDS011;11117;48.644;9.006;2023-03-29T08:04:18;2.97;;;1.53;;
21905;SDS011;11117;48.644;9.006;2023-03-29T08:06:44;4.00;;;1.40;;
21905;SDS011;11117;48.644;9.006;2023-03-29T08:09:09;3.37;;;1.63;;
21905;SDS011;11117;48.644;9.006;2023-03-29T08:11:35;5.80;;;1.60;;
21905;SDS011;11117;48.644;9.006;2023-03-29T08:14:00;4.03;;;1.47;;
21905;SDS011;11117;48.644;9.006;2023-03-29T08:16:26;3.60;;;1.80;;
21905;SDS011;11117;48.644;9.006;2023-03-29T08:18:51;2.17;;;1.73;;
21905;SDS011;11117;48.644;9.006;2023-03-29T08:21:22;2.87;;;1.93;;
21905;SDS011;11117;48.644;9.006;2023-03-29T08:23:48;2.67;;;1.73;;
21905;SDS011;11117;48.644;9.006;2023-03-29T08:26:13;3.33;;;1.67;;
21905;SDS011;11117;48.644;9.006;2023-03-29T08:28:39;2.87;;;1.60;;
21905;SDS011;11117;48.644;9.006;2023-03-29T08:31:05;3.73;;;1.53;;
21905;SDS011;11117;48.644;9.006;2023-03-29T08:33:32;11.47;;;1.90;;
21905;SDS011;11117;48.644;9.006;2023-03-29T08:35:57;4.50;;;1.70;;
21905;SDS011;11117;48.644;9.006;2023-03-29T08:38:23;2.80;;;1.70;;
21905;SDS011;11117;48.644;9.006;2023-03-29T08:40:48;4.57;;;1.90;;
21905;SDS011;11117;48.644;9.006;2023-03-29T08:49:01;4.40;;;1.97;;
21905;SDS011;11117;48.644;9.006;2023-03-29T08:51:39;3.60;;;1.70;;
21905;SDS011;11117;48.644;9.006;2023-03-29T08:54:11;4.13;;;1.70;;
21905;SDS011;11117;48.644;9.006;2023-03-29T08:56:40;2.07;;;1.50;;
21905;SDS011;11117;48.644;9.006;2023-03-29T08:59:13;3.17;;;1.53;;
21905;SDS011;11117;48.644;9.006;2023-03-29T09:01:50;2.07;;;1.60;;
21905;SDS011;11117;48.644;9.006;2023-03-29T09:04:19;4.03;;;1.70;;
21905;SDS011;11117;48.644;9.006;2023-03-29T09:06:50;4.23;;;1.80;;
21905;SDS011;11117;48.644;9.006;2023-03-29T09:09:17;2.43;;;1.70;;
21905;SDS011;11117;48.644;9.006;2023-03-29T09:14:38;5.13;;;1.80;;
21905;SDS011;11117;48.644;9.006;2023-03-29T09:23:37;5.13;;;2.03;;
21905;SDS011;11117;48.644;9.006;2023-03-29T09:26:32;4.72;;;1.65;;
21905;SDS011;11117;48.644;9.006;2023-03-29T09:31:41;2.22;;;1.52;;
21905;SDS011;11117;48.644;9.006;2023-03-29T09:34:15;2.85;;;1.77;;
21905;SDS011;11117;48.644;9.006;2023-03-29T09:37:02;6.03;;;1.58;;
21905;SDS011;11117;48.644;9.006;2023-03-29T09:39:35;4.50;;;1.73;;
21905;SDS011;11117;48.644;9.006;2023-03-29T09:42:03;4.53;;;1.85;;
21905;SDS011;11117;48.644;9.006;2023-03-29T09:44:31;2.42;;;1.65;;
21905;SDS011;11117;48.644;9.006;2023-03-29T09:47:11;2.50;;;1.70;;
21905;SDS011;11117;48.644;9.006;2023-03-29T09:49:42;3.40;;;2.00;;
21905;SDS011;11117;48.644;9.006;2023-03-29T09:52:12;5.05;;;1.80;;
21905;SDS011;11117;48.644;9.006;2023-03-29T09:54:39;3.97;;;1.60;;
21905;SDS011;11117;48.644;9.006;2023-03-29T09:57:05;4.32;;;1.40;;
21905;SDS011;11117;48.644;9.006;2023-03-29T09:59:34;4.43;;;1.60;;
21905;SDS011;11117;48.644;9.006;2023-03-29T10:02:06;4.28;;;1.60;;
21905;SDS011;11117;48.644;9.006;2023-03-29T10:04:34;3.15;;;1.60;;
21905;SDS011;11117;48.644;9.006;2023-03-29T10:07:02;3.45;;;1.40;;
21905;SDS011;11117;48.644;9.006;2023-03-29T10:09:28;4.40;;;1.80;;
21905;SDS011;11117;48.644;9.006;2023-03-29T10:11:55;4.28;;;1.80;;
21905;SDS011;11117;48.644;9.006;2023-03-29T10:14:35;3.63;;;1.60;;
21905;SDS011;11117;48.644;9.006;2023-03-29T10:17:12;3.92;;;1.77;;
21905;SDS011;11117;48.644;9.006;2023-03-29T10:19:46;3.83;;;1.90;;
21905;SDS011;11117;48.644;9.006;2023-03-29T10:22:23;3.83;;;1.55;;
21905;SDS011;11117;48.644;9.006;2023-03-29T10:24:51;5.53;;;1.70;;
21905;SDS011;11117;48.644;9.006;2023-03-29T10:27:19;2.38;;;1.60;;
21905;SDS011;11117;48.644;9.006;2023-03-29T10:29:48;3.30;;;2.00;;
21905;SDS011;11117;48.644;9.006;2023-03-29T10:32:25;4.28;;;1.75;;
21905;SDS011;11117;48.644;9.006;2023-03-29T10:34:52;2.88;;;1.92;;
21905;SDS011;11117;48.644;9.006;2023-03-29T10:37:19;9.35;;;2.10;;
21905;SDS011;11117;48.644;9.006;2023-03-29T10:39:45;3.72;;;1.70;;
21905;SDS011;11117;48.644;9.006;2023-03-29T10:42:12;5.55;;;2.05;;
21905;SDS011;11117;48.644;9.006;2023-03-29T10:44:40;4.85;;;2.10;;
21905;SDS011;11117;48.644;9.006;2023-03-29T10:49:43;3.90;;;2.28;;
21905;SDS011;11117;48.644;9.006;2023-03-29T10:52:20;10.88;;;2.85;;
21905;SDS011;11117;48.644;9.006;2023-03-29T10:54:47;12.05;;;3.90;;
21905;SDS011;11117;48.644;9.006;2023-03-29T10:57:14;5.18;;;1.90;;
21905;SDS011;11117;48.644;9.006;2023-03-29T10:59:52;8.68;;;2.20;;
21905;SDS011;11117;48.644;9.006;2023-03-29T11:07:54;4.97;;;1.85;;
21905;SDS011;11117;48.644;9.006;2023-03-29T11:15:59;3.40;;;1.70;;
21905;SDS011;11117;48.644;9.006;2023-03-29T11:26:46;4.65;;;1.48;;
21905;SDS011;11117;48.644;9.006;2023-03-29T11:32:31;3.60;;;1.17;;
21905;SDS011;11117;48.644;9.006;2023-03-29T11:37:56;4.32;;;1.30;;
21905;SDS011;11117;48.644;9.006;2023-03-29T11:43:15;2.38;;;1.13;;
21905;SDS011;11117;48.644;9.006;2023-03-29T11:45:48;3.80;;;1.30;;
21905;SDS011;11117;48.644;9.006;2023-03-29T11:48:49;1.95;;;1.33;;
21905;SDS011;11117;48.644;9.006;2023-03-29T11:51:26;5.80;;;1.50;;
21905;SDS011;11117;48.644;9.006;2023-03-29T11:54:04;2.08;;;1.15;;
21905;SDS011;11117;48.644;9.006;2023-03-29T11:56:44;1.38;;;1.05;;
21905;SDS011;11117;48.644;9.006;2023-03-29T11:59:36;2.28;;;1.27;;
21905;SDS011;11117;48.644;9.006;2023-03-29T12:02:26;5.03;;;1.13;;
21905;SDS011;11117;48.644;9.006;2023-03-29T12:04:58;3.13;;;1.40;;
21905;SDS011;11117;48.644;9.006;2023-03-29T12:07:31;3.08;;;1.10;;
21905;SDS011;11117;48.644;9.006;2023-03-29T12:12:51;2.42;;;1.20;;
21905;SDS011;11117;48.644;9.006;2023-03-29T12:15:25;6.82;;;1.85;;
21905;SDS011;11117;48.644;9.006;2023-03-29T12:20:28;2.70;;;1.40;;
21905;SDS011;11117;48.644;9.006;2023-03-29T12:22:58;3.60;;;1.20;;
21905;SDS011;11117;48.644;9.006;2023-03-29T12:25:25;3.15;;;1.00;;
21905;SDS011;11117;48.644;9.006;2023-03-29T12:28:24;2.03;;;1.15;;
21905;SDS011;11117;48.644;9.006;2023-03-29T12:39:22;3.85;;;1.33;;
21905;SDS011;11117;48.644;9.006;2023-03-29T12:41:49;3.75;;;1.10;;
21905;SDS011;11117;48.644;9.006;2023-03-29T12:44:15;2.33;;;1.30;;
21905;SDS011;11117;48.644;9.006;2023-03-29T12:46:44;5.80;;;1.23;;
21905;SDS011;11117;48.644;9.006;2023-03-29T12:51:53;3.97;;;1.30;;
21905;SDS011;11117;48.644;9.006;2023-03-29T12:54:23;2.88;;;1.10;;
21905;SDS011;11117;48.644;9.006;2023-03-29T12:59:23;2.35;;;1.30;;
21905;SDS011;11117;48.644;9.006;2023-03-29T13:01:59;5.10;;;1.67;;
21905;SDS011;11117;48.644;9.006;2023-03-29T13:05:00;3.67;;;1.20;;
21905;SDS011;11117;48.644;9.006;2023-03-29T13:09:51;6.70;;;1.38;;
21905;SDS011;11117;48.644;9.006;2023-03-29T13:15:06;3.90;;;1.30;;
21905;SDS011;11117;48.644;9.006;2023-03-29T13:28:54;3.55;;;1.35;;
21905;SDS011;11117;48.644;9.006;2023-03-29T13:31:41;2.80;;;1.20;;
21905;SDS011;11117;48.644;9.006;2023-03-29T13:34:28;3.63;;;1.60;;
21905;SDS011;11117;48.644;9.006;2023-03-29T13:39:31;6.88;;;1.60;;
21905;SDS011;11117;48.644;9.006;2023-03-29T13:45:03;3.08;;;1.20;;
21905;SDS011;11117;48.644;9.006;2023-03-29T13:47:39;3.92;;;1.40;;
21905;SDS011;11117;48.644;9.006;2023-03-29T13:50:17;1.63;;;1.05;;
21905;SDS011;11117;48.644;9.006;2023-03-29T13:55:53;4.57;;;1.20;;
21905;SDS011;11117;48.644;9.006;2023-03-29T14:01:06;7.22;;;1.55;;
21905;SDS011;11117;48.644;9.006;2023-03-29T14:03:52;6.97;;;1.30;;
21905;SDS011;11117;48.644;9.006;2023-03-29T14:06:25;3.97;;;1.20;;
21905;SDS011;11117;48.644;9.006;2023-03-29T14:08:58;4.22;;;1.48;;
21905;SDS011;11117;48.644;9.006;2023-03-29T14:11:28;3.28;;;1.20;;
21905;SDS011;11117;48.644;9.006;2023-03-29T14:13:55;4.78;;;1.30;;
21905;SDS011;11117;48.644;9.006;2023-03-29T14:16:24;3.03;;;1.30;;
21905;SDS011;11117;48.644;9.006;2023-03-29T14:18:52;5.18;;;1.35;;
21905;SDS011;11117;48.644;9.006;2023-03-29T14:21:26;3.85;;;1.42;;
21905;SDS011;11117;48.644;9.006;2023-03-29T14:23:53;7.07;;;1.30;;
21905;SDS011;11117;48.644;9.006;2023-03-29T14:26:22;6.78;;;1.23;;
21905;SDS011;11117;48.644;9.006;2023-03-29T14:28:54;6.97;;;1.70;;
21905;SDS011;11117;48.644;9.006;2023-03-29T14:33:54;5.55;;;1.65;;
21905;SDS011;11117;48.644;9.006;2023-03-29T14:36:21;3.60;;;1.20;;
21905;SDS011;11117;48.644;9.006;2023-03-29T14:38:49;3.35;;;1.20;;
21905;SDS011;11117;48.644;9.006;2023-03-29T14:41:17;2.70;;;1.30;;
21905;SDS011;11117;48.644;9.006;2023-03-29T14:43:43;3.25;;;1.20;;
21905;SDS011;11117;48.644;9.006;2023-03-29T14:46:10;3.47;;;1.42;;
21905;SDS011;11117;48.644;9.006;2023-03-29T14:48:37;4.35;;;1.63;;
21905;SDS011;11117;48.644;9.006;2023-03-29T14:51:03;3.65;;;1.27;;
21905;SDS011;11117;48.644;9.006;2023-03-29T14:53:29;5.25;;;1.48;;
21905;SDS011;11117;48.644;9.006;2023-03-29T14:55:55;4.43;;;1.58;;
21905;SDS011;11117;48.644;9.006;2023-03-29T14:58:28;7.43;;;1.67;;
21905;SDS011;11117;48.644;9.006;2023-03-29T15:00:56;2.58;;;1.40;;
21905;SDS011;11117;48.644;9.006;2023-03-29T15:03:27;5.05;;;1.50;;
21905;SDS011;11117;48.644;9.006;2023-03-29T15:05:54;4.20;;;1.50;;
21905;SDS011;11117;48.644;9.006;2023-03-29T15:08:31;2.72;;;1.40;;
21905;SDS011;11117;48.644;9.006;2023-03-29T15:10:59;4.07;;;1.48;;
21905;SDS011;11117;48.644;9.006;2023-03-29T15:13:26;8.75;;;1.67;;
21905;SDS011;11117;48.644;9.006;2023-03-29T15:15:54;3.92;;;1.30;;
21905;SDS011;11117;48.644;9.006;2023-03-29T15:18:25;4.43;;;1.27;;
21905;SDS011;11117;48.644;9.006;2023-03-29T15:20:56;3.75;;;1.25;;
21905;SDS011;11117;48.644;9.006;2023-03-29T15:23:23;8.63;;;1.33;;
21905;SDS011;11117;48.644;9.006;2023-03-29T15:25:51;5.97;;;2.05;;
21905;SDS011;11117;48.644;9.006;2023-03-29T15:28:23;2.65;;;1.33;;
21905;SDS011;11117;48.644;9.006;2023-03-29T15:34:00;4.38;;;1.45;;
21905;SDS011;11117;48.644;9.006;2023-03-29T15:36:34;4.85;;;1.10;;
21905;SDS011;11117;48.644;9.006;2023-03-29T15:39:13;2.97;;;1.35;;
21905;SDS011;11117;48.644;9.006;2023-03-29T15:41:40;7.65;;;1.58;;
21905;SDS011;11117;48.644;9.006;2023-03-29T15:44:07;3.55;;;1.20;;
21905;SDS011;11117;48.644;9.006;2023-03-29T15:46:33;4.82;;;1.52;;
21905;SDS011;11117;48.644;9.006;2023-03-29T15:48:59;4.95;;;1.40;;
21905;SDS011;11117;48.644;9.006;2023-03-29T15:51:24;3.00;;;1.42;;
21905;SDS011;11117;48.644;9.006;2023-03-29T15:53:50;4.88;;;1.40;;
21905;SDS011;11117;48.644;9.006;2023-03-29T15:56:16;5.05;;;1.60;;
21905;SDS011;11117;48.644;9.006;2023-03-29T15:58:43;2.30;;;1.10;;
21905;SDS011;11117;48.644;9.006;2023-03-29T16:06:27;4.32;;;1.27;;
21905;SDS011;11117;48.644;9.006;2023-03-29T16:08:53;4.18;;;1.30;;
21905;SDS011;11117;48.644;9.006;2023-03-29T16:11:18;5.05;;;1.40;;
21905;SDS011;11117;48.644;9.006;2023-03-29T16:13:44;6.70;;;1.30;;
21905;SDS011;11117;48.644;9.006;2023-03-29T16:16:09;1.63;;;1.20;;
21905;SDS011;11117;48.644;9.006;2023-03-29T16:18:35;7.00;;;1.40;;
21905;SDS011;11117;48.644;9.006;2023-03-29T16:21:02;3.85;;;1.35;;
21905;SDS011;11117;48.644;9.006;2023-03-29T16:23:28;5.00;;;1.83;;
21905;SDS011;11117;48.644;9.006;2023-03-29T16:25:53;4.60;;;1.70;;
21905;SDS011;11117;48.644;9.006;2023-03-29T16:28:19;4.53;;;1.48;;
21905;SDS011;11117;48.644;9.006;2023-03-29T16:30:44;3.38;;;1.70;;
21905;SDS011;11117;48.644;9.006;2023-03-29T16:33:10;7.00;;;1.63;;
21905;SDS011;11117;48.644;9.006;2023-03-29T16:35:36;4.32;;;1.50;;
21905;SDS011;11117;48.644;9.006;2023-03-29T16:38:03;7.68;;;1.58;;
21905;SDS011;11117;48.644;9.006;2023-03-29T16:40:29;3.85;;;1.67;;
21905;SDS011;11117;48.644;9.006;2023-03-29T16:42:54;6.10;;;1.73;;
21905;SDS011;11117;48.644;9.006;2023-03-29T16:45:20;7.53;;;1.90;;
21905;SDS011;11117;48.644;9.006;2023-03-29T16:47:45;8.30;;;2.22;;
21905;SDS011;11117;48.644;9.006;2023-03-29T16:50:12;4.45;;;2.30;;
21905;SDS011;11117;48.644;9.006;2023-03-29T16:52:39;9.20;;;2.70;;
21905;SDS011;11117;48.644;9.006;2023-03-29T16:55:05;9.52;;;3.47;;
21905;SDS011;11117;48.644;9.006;2023-03-29T16:57:32;6.60;;;3.53;;
21905;SDS011;11117;48.644;9.006;2023-03-29T16:59:58;7.38;;;3.45;;